createdAt,value
2022-10-03T08:27:20.205Z,3.53
2022-10-03T08:43:12.378Z,3.60
2022-10-03T08:58:32.817Z,23.35
2022-10-03T09:14:11.891Z,16.77
2022-10-03T09:29:46.596Z,11.15
2022-10-03T09:45:22.040Z,7.03
2022-10-03T10:00:31.401Z,4.72
2022-10-03T10:16:13.539Z,3.30
2022-10-03T10:31:49.217Z,2.63
2022-10-03T10:47:27.384Z,3.15
2022-10-03T11:03:34.602Z,3.30
2022-10-03T11:19:12.839Z,4.47
2022-10-03T11:35:14.514Z,6.30
2022-10-03T11:50:42.827Z,7.18
2022-10-03T12:06:13.819Z,6.85
2022-10-03T12:21:23.864Z,6.20
2022-10-03T12:36:36.067Z,5.83
2022-10-03T12:51:53.838Z,4.97
2022-10-03T13:07:11.900Z,4.50
2022-10-03T13:22:30.822Z,3.97
2022-10-03T13:37:53.967Z,3.50
2022-10-03T13:53:02.292Z,3.20
2022-10-03T14:08:20.508Z,3.92
2022-10-03T14:23:33.959Z,3.28
2022-10-03T14:39:05.139Z,3.42
2022-10-03T14:54:20.802Z,3.47
2022-10-03T15:09:33.450Z,3.30
2022-10-03T15:24:40.998Z,3.33
2022-10-03T15:39:48.121Z,2.55
2022-10-03T15:55:11.033Z,3.40
2022-10-03T16:10:20.923Z,2.78
2022-10-03T16:25:29.140Z,3.00
2022-10-03T16:40:37.768Z,2.55
2022-10-03T16:55:48.670Z,2.58
2022-10-03T17:10:57.144Z,2.28
2022-10-03T17:26:06.937Z,1.98
2022-10-03T17:41:25.107Z,2.13
2022-10-03T17:56:32.908Z,1.85
2022-10-03T18:11:40.173Z,2.58
2022-10-03T18:26:48.862Z,2.47
2022-10-03T18:41:58.322Z,1.95
2022-10-03T18:57:18.031Z,2.30
2022-10-03T19:12:24.637Z,2.27
2022-10-03T19:27:43.520Z,2.33
2022-10-03T19:42:52.354Z,2.40
2022-10-03T19:57:59.978Z,2.33
2022-10-03T20:13:04.841Z,2.45
2022-10-03T20:28:19.883Z,2.15
